sensor_id;sensor_type;location;lat;lon;timestamp;pressure;altitude;pressure_sealevel;temperature;humidity
51530;BME280;37613;51.788;21.582;2023-04-04T10:18:52;100750.70;;;2.69;54.12
51530;BME280;37613;51.788;21.582;2023-04-04T10:22:55;100749.88;;;2.60;54.08
51530;BME280;37613;51.788;21.582;2023-04-04T10:26:58;100745.89;;;2.54;54.19
51530;BME280;37613;51.788;21.582;2023-04-04T10:31:16;100743.52;;;2.59;54.68
51530;BME280;37613;51.788;21.582;2023-04-04T10:35:21;100737.98;;;2.73;54.94
51530;BME280;37613;51.788;21.582;2023-04-04T10:43:52;100746.77;;;2.86;54.69
51530;BME280;37613;51.788;21.582;2023-04-04T10:47:58;100743.52;;;2.90;54.99
51530;BME280;37613;51.788;21.582;2023-04-04T10:52:04;100743.17;;;2.88;54.44
51530;BME280;37613;51.788;21.582;2023-04-04T10:56:07;100741.55;;;2.82;54.58
51530;BME280;37613;51.788;21.582;2023-04-04T11:04:23;100742.84;;;2.91;53.43
51530;BME280;37613;51.788;21.582;2023-04-04T11:08:31;100737.27;;;2.86;53.99
51530;BME280;37613;51.788;21.582;2023-04-04T11:12:42;100734.56;;;2.91;54.35
51530;BME280;37613;51.788;21.582;2023-04-04T11:16:50;100731.80;;;3.06;54.10
51530;BME280;37613;51.788;21.582;2023-04-04T11:20:53;100726.21;;;3.28;54.10
51530;BME280;37613;51.788;21.582;2023-04-04T11:24:59;100723.78;;;3.49;53.85
51530;BME280;37613;51.788;21.582;2023-04-04T11:29:07;100720.58;;;3.45;53.03
51530;BME280;37613;51.788;21.582;2023-04-04T11:33:27;100717.05;;;3.40;52.97
51530;BME280;37613;51.788;21.582;2023-04-04T11:38:16;100719.23;;;3.42;53.21
51530;BME280;37613;51.788;21.582;2023-04-04T11:42:20;100721.27;;;3.46;53.07
51530;BME280;37613;51.788;21.582;2023-04-04T11:46:22;100715.55;;;3.48;53.15
51530;BME280;37613;51.788;21.582;2023-04-04T11:50:38;100708.89;;;3.48;53.14
51530;BME280;37613;51.788;21.582;2023-04-04T11:54:50;100703.61;;;3.40;53.40
51530;BME280;37613;51.788;21.582;2023-04-04T11:58:59;100707.80;;;3.44;53.29
51530;BME280;37613;51.788;21.582;2023-04-04T12:03:09;100714.64;;;3.34;52.82
51530;BME280;37613;51.788;21.582;2023-04-04T12:07:12;100719.48;;;3.26;52.85
51530;BME280;37613;51.788;21.582;2023-04-04T12:11:18;100712.33;;;3.33;53.09
51530;BME280;37613;51.788;21.582;2023-04-04T12:15:22;100710.64;;;3.46;53.33
51530;BME280;37613;51.788;21.582;2023-04-04T12:19:27;100707.86;;;3.62;52.88
51530;BME280;37613;51.788;21.582;2023-04-04T12:23:33;100704.50;;;3.54;52.17
51530;BME280;37613;51.788;21.582;2023-04-04T12:27:37;100702.86;;;3.39;52.67
51530;BME280;37613;51.788;21.582;2023-04-04T12:31:41;100704.29;;;3.29;52.76
51530;BME280;37613;51.788;21.582;2023-04-04T12:36:03;100703.14;;;3.23;52.96
51530;BME280;37613;51.788;21.582;2023-04-04T12:40:10;100702.02;;;3.25;52.67
51530;BME280;37613;51.788;21.582;2023-04-04T12:44:31;100698.65;;;3.33;53.14
51530;BME280;37613;51.788;21.582;2023-04-04T12:48:42;100694.71;;;3.47;53.22
51530;BME280;37613;51.788;21.582;2023-04-04T12:53:02;100694.41;;;3.58;53.15
51530;BME280;37613;51.788;21.582;2023-04-04T12:57:18;100694.96;;;3.62;51.77
51530;BME280;37613;51.788;21.582;2023-04-04T13:01:24;100693.71;;;3.62;52.19
51530;BME280;37613;51.788;21.582;2023-04-04T13:05:40;100692.66;;;3.55;51.65
51530;BME280;37613;51.788;21.582;2023-04-04T13:09:51;100690.13;;;3.45;52.14
51530;BME280;37613;51.788;21.582;2023-04-04T13:14:05;100690.20;;;3.39;51.86
51530;BME280;37613;51.788;21.582;2023-04-04T13:18:22;100693.83;;;3.21;51.08
51530;BME280;37613;51.788;21.582;2023-04-04T13:22:33;100693.02;;;3.05;51.40
51530;BME280;37613;51.788;21.582;2023-04-04T13:26:37;100687.55;;;3.01;51.67
51530;BME280;37613;51.788;21.582;2023-04-04T13:30:51;100682.48;;;3.03;52.03
51530;BME280;37613;51.788;21.582;2023-04-04T13:35:05;100683.83;;;3.16;52.43
51530;BME280;37613;51.788;21.582;2023-04-04T13:39:07;100680.64;;;3.25;52.28
51530;BME280;37613;51.788;21.582;2023-04-04T13:43:20;100683.98;;;3.22;52.17
51530;BME280;37613;51.788;21.582;2023-04-04T13:47:24;100686.94;;;3.14;51.80
51530;BME280;37613;51.788;21.582;2023-04-04T13:51:38;100690.98;;;3.09;52.37
51530;BME280;37613;51.788;21.582;2023-04-04T13:55:41;100693.26;;;2.99;52.72
51530;BME280;37613;51.788;21.582;2023-04-04T13:59:43;100695.93;;;2.88;52.60
51530;BME280;37613;51.788;21.582;2023-04-04T14:03:46;100692.58;;;2.71;52.60
51530;BME280;37613;51.788;21.582;2023-04-04T14:07:48;100690.22;;;2.57;52.65
51530;BME280;37613;51.788;21.582;2023-04-04T14:12:03;100692.31;;;2.48;53.01
51530;BME280;37613;51.788;21.582;2023-04-04T14:16:17;100690.29;;;2.47;53.15
51530;BME280;37613;51.788;21.582;2023-04-04T14:20:26;100692.38;;;2.50;53.22
51530;BME280;37613;51.788;21.582;2023-04-04T14:24:31;100688.91;;;2.54;53.35
51530;BME280;37613;51.788;21.582;2023-04-04T14:28:38;100682.79;;;2.63;53.74
51530;BME280;37613;51.788;21.582;2023-04-04T14:32:44;100669.62;;;2.67;53.60
51530;BME280;37613;51.788;21.582;2023-04-04T14:36:52;100670.04;;;2.70;53.86
51530;BME280;37613;51.788;21.582;2023-04-04T14:41:00;100671.52;;;2.73;53.77
51530;BME280;37613;51.788;21.582;2023-04-04T14:45:03;100676.45;;;2.68;54.45
51530;BME280;37613;51.788;21.582;2023-04-04T14:49:14;100680.60;;;2.51;54.65
51530;BME280;37613;51.788;21.582;2023-04-04T14:53:21;100687.52;;;2.36;55.05
51530;BME280;37613;51.788;21.582;2023-04-04T14:57:23;100689.92;;;2.24;55.01
51530;BME280;37613;51.788;21.582;2023-04-04T15:01:36;100693.80;;;2.16;55.24
51530;BME280;37613;51.788;21.582;2023-04-04T15:05:42;100692.36;;;2.11;56.01
51530;BME280;37613;51.788;21.582;2023-04-04T15:09:44;100689.04;;;2.14;56.37
51530;BME280;37613;51.788;21.582;2023-04-04T15:13:47;100683.30;;;2.25;56.65
51530;BME280;37613;51.788;21.582;2023-04-04T15:17:50;100681.91;;;2.40;56.60
51530;BME280;37613;51.788;21.582;2023-04-04T15:21:52;100680.84;;;2.55;56.74
51530;BME280;37613;51.788;21.582;2023-04-04T15:25:57;100674.05;;;2.63;57.22
51530;BME280;37613;51.788;21.582;2023-04-04T15:30:13;100673.83;;;2.69;57.10
51530;BME280;37613;51.788;21.582;2023-04-04T15:34:33;100671.63;;;2.69;56.89
51530;BME280;37613;51.788;21.582;2023-04-04T15:38:38;100667.34;;;2.61;57.03
51530;BME280;37613;51.788;21.582;2023-04-04T15:42:46;100671.05;;;2.48;57.19
51530;BME280;37613;51.788;21.582;2023-04-04T15:47:00;100670.90;;;2.32;57.32
51530;BME280;37613;51.788;21.582;2023-04-04T15:51:17;100670.09;;;2.16;57.36
51530;BME280;37613;51.788;21.582;2023-04-04T15:55:22;100673.70;;;2.11;57.59
51530;BME280;37613;51.788;21.582;2023-04-04T15:59:27;100678.77;;;1.92;59.42
51530;BME280;37613;51.788;21.582;2023-04-04T16:03:32;100680.91;;;1.71;59.88
51530;BME280;37613;51.788;21.582;2023-04-04T16:07:34;100675.09;;;1.59;61.34
51530;BME280;37613;51.788;21.582;2023-04-04T16:11:36;100673.86;;;1.43;61.74
51530;BME280;37613;51.788;21.582;2023-04-04T16:15:39;100673.33;;;1.31;61.10
51530;BME280;37613;51.788;21.582;2023-04-04T16:19:41;100671.10;;;1.26;60.98
51530;BME280;37613;51.788;21.582;2023-04-04T16:23:43;100677.09;;;1.25;61.40
51530;BME280;37613;51.788;21.582;2023-04-04T16:27:46;100680.38;;;1.23;61.33
51530;BME280;37613;51.788;21.582;2023-04-04T16:31:51;100677.00;;;1.26;61.23
51530;BME280;37613;51.788;21.582;2023-04-04T16:35:59;100673.44;;;1.32;61.15
51530;BME280;37613;51.788;21.582;2023-04-04T16:40:04;100676.68;;;1.29;61.11
51530;BME280;37613;51.788;21.582;2023-04-04T16:44:11;100672.44;;;1.23;61.09
51530;BME280;37613;51.788;21.582;2023-04-04T16:53:49;100669.77;;;1.15;61.16
51530;BME280;37613;51.788;21.582;2023-04-04T16:57:55;100675.48;;;1.17;61.18
51530;BME280;37613;51.788;21.582;2023-04-04T17:02:08;100676.36;;;1.19;61.35
51530;BME280;37613;51.788;21.582;2023-04-04T17:06:13;100682.56;;;1.17;61.29
51530;BME280;37613;51.788;21.582;2023-04-04T17:10:21;100684.66;;;1.16;61.36
51530;BME280;37613;51.788;21.582;2023-04-04T17:14:26;100685.14;;;1.15;61.27
51530;BME280;37613;51.788;21.582;2023-04-04T17:18:35;100686.20;;;1.12;61.23
51530;BME280;37613;51.788;21.582;2023-04-04T17:22:40;100689.91;;;1.08;61.18
51530;BME280;37613;51.788;21.582;2023-04-04T17:26:51;100696.08;;;1.03;61.13
51530;BME280;37613;51.788;21.582;2023-04-04T17:31:02;100702.19;;;0.99;61.20
51530;BME280;37613;51.788;21.582;2023-04-04T17:35:12;100708.47;;;0.97;61.32
51530;BME280;37613;51.788;21.582;2023-04-04T17:39:20;100715.21;;;0.95;61.40
51530;BME280;37613;51.788;21.582;2023-04-04T17:43:26;100717.80;;;0.94;61.39
51530;BME280;37613;51.788;21.582;2023-04-04T17:47:29;100724.83;;;0.97;61.54
51530;BME280;37613;51.788;21.582;2023-04-04T17:51:38;100729.14;;;1.00;61.55
51530;BME280;37613;51.788;21.582;2023-04-04T17:55:43;100726.24;;;1.03;61.60
51530;BME280;37613;51.788;21.582;2023-04-04T17:59:46;100725.56;;;1.01;61.58
51530;BME280;37613;51.788;21.582;2023-04-04T18:03:51;100731.13;;;0.99;61.60
51530;BME280;37613;51.788;21.582;2023-04-04T18:07:56;100733.41;;;1.00;61.71
51530;BME280;37613;51.788;21.582;2023-04-04T18:11:59;100735.39;;;1.00;61.75
51530;BME280;37613;51.788;21.582;2023-04-04T18:16:03;100741.27;;;0.97;61.72
51530;BME280;37613;51.788;21.582;2023-04-04T18:20:13;100748.02;;;0.94;61.88
51530;BME280;37613;51.788;21.582;2023-04-04T18:24:18;100755.57;;;0.89;62.18
51530;BME280;37613;51.788;21.582;2023-04-04T18:28:21;100758.26;;;0.72;64.12
51530;BME280;37613;51.788;21.582;2023-04-04T18:32:24;100761.69;;;0.52;65.59
51530;BME280;37613;51.788;21.582;2023-04-04T18:36:32;100763.99;;;0.38;66.16
51530;BME280;37613;51.788;21.582;2023-04-04T18:40:37;100762.52;;;0.24;65.60
51530;BME280;37613;51.788;21.582;2023-04-04T18:44:39;100756.77;;;0.16;65.74
51530;BME280;37613;51.788;21.582;2023-04-04T18:48:42;100758.44;;;0.15;65.34
51530;BME280;37613;51.788;21.582;2023-04-04T18:52:49;100753.05;;;0.11;65.68
51530;BME280;37613;51.788;21.582;2023-04-04T18:56:53;100751.95;;;0.10;66.03
51530;BME280;37613;51.788;21.582;2023-04-04T19:00:58;100733.08;;;0.01;66.74
51530;BME280;37613;51.788;21.582;2023-04-04T19:05:10;100738.77;;;0.06;66.15
51530;BME280;37613;51.788;21.582;2023-04-04T19:09:14;100734.60;;;0.05;66.80
51530;BME280;37613;51.788;21.582;2023-04-04T19:13:17;100724.52;;;0.02;67.98
51530;BME280;37613;51.788;21.582;2023-04-04T19:17:20;100724.12;;;0.00;67.01
51530;BME280;37613;51.788;21.582;2023-04-04T19:21:23;100724.98;;;0.01;67.20
51530;BME280;37613;51.788;21.582;2023-04-04T19:25:26;100725.59;;;0.00;67.25
51530;BME280;37613;51.788;21.582;2023-04-04T19:29:29;100723.30;;;-0.02;68.98
51530;BME280;37613;51.788;21.582;2023-04-04T19:33:34;100720.25;;;-0.06;69.03
51530;BME280;37613;51.788;21.582;2023-04-04T19:37:40;100717.69;;;-0.07;68.98
51530;BME280;37613;51.788;21.582;2023-04-04T19:41:42;100716.31;;;-0.10;68.88
51530;BME280;37613;51.788;21.582;2023-04-04T19:45:53;100713.59;;;-0.10;68.46
51530;BME280;37613;51.788;21.582;2023-04-04T19:49:56;100717.23;;;-0.07;68.49
51530;BME280;37613;51.788;21.582;2023-04-04T19:58:34;100713.02;;;-0.02;68.56
51530;BME280;37613;51.788;21.582;2023-04-04T20:02:49;100717.29;;;-0.01;68.66
51530;BME280;37613;51.788;21.582;2023-04-04T20:06:51;100720.92;;;-0.01;68.73
51530;BME280;37613;51.788;21.582;2023-04-04T20:10:54;100727.66;;;-0.00;68.71
51530;BME280;37613;51.788;21.582;2023-04-04T20:14:58;100733.11;;;-0.05;68.99
51530;BME280;37613;51.788;21.582;2023-04-04T20:19:03;100734.00;;;-0.10;69.57
51530;BME280;37613;51.788;21.582;2023-04-04T20:23:12;100733.05;;;-0.15;69.66
51530;BME280;37613;51.788;21.582;2023-04-04T20:27:22;100728.65;;;-0.17;69.46
51530;BME280;37613;51.788;21.582;2023-04-04T20:31:29;100728.55;;;-0.19;69.84
51530;BME280;37613;51.788;21.582;2023-04-04T20:35:35;100727.33;;;-0.19;69.64
51530;BME280;37613;51.788;21.582;2023-04-04T20:39:52;100727.70;;;-0.16;69.68
51530;BME280;37613;51.788;21.582;2023-04-04T20:43:58;100725.23;;;-0.13;69.64
51530;BME280;37613;51.788;21.582;2023-04-04T20:48:00;100723.18;;;-0.12;69.71
51530;BME280;37613;51.788;21.582;2023-04-04T20:52:05;100722.25;;;-0.12;69.96
51530;BME280;37613;51.788;21.582;2023-04-04T21:04:30;100720.88;;;-0.15;70.30
51530;BME280;37613;51.788;21.582;2023-04-04T21:08:45;100716.68;;;-0.17;71.01
51530;BME280;37613;51.788;21.582;2023-04-04T21:12:49;100715.89;;;-0.20;70.66
51530;BME280;37613;51.788;21.582;2023-04-04T21:16:51;100714.98;;;-0.25;71.24
51530;BME280;37613;51.788;21.582;2023-04-04T21:21:16;100713.09;;;-0.30;71.05
51530;BME280;37613;51.788;21.582;2023-04-04T21:26:48;100710.13;;;-0.34;70.93
51530;BME280;37613;51.788;21.582;2023-04-04T22:50:43;100696.09;;;-1.50;71.93
51530;BME280;37613;51.788;21.582;2023-04-04T22:55:37;100695.95;;;-1.56;71.71
51530;BME280;37613;51.788;21.582;2023-04-04T23:30:31;100666.73;;;-2.04;72.57
51530;BME280;37613;51.788;21.582;2023-04-04T23:50:30;100646.86;;;-2.29;73.13
51530;BME280;37613;51.788;21.582;2023-04-04T23:55:11;100641.84;;;-2.34;73.32
51530;BME280;37613;51.788;21.582;2023-04-04T23:59:41;100639.67;;;-2.37;73.44
